Time;durP1;ratioP1;P1;durP2;ratioP2;P2;SDS_P1;SDS_P2;PMS_P1;PMS_P2;Temp;Humidity;BMP_temperature;BMP_pressure;BME280_temperature;BME280_humidity;BME280_pressure;Samples;Min_cycle;Max_cycle;Signal;HPM_P1;HPM_P2
2023/06/09 00:00:52;;;;;;;4.57;1.87;;;;;;;19.06;77.31;98901.94;5071974;28;20220;-79
2023/06/09 00:03:21;;;;;;;2.50;1.70;;;;;;;19.08;77.43;98902.56;5071956;28;20227;-79
2023/06/09 00:05:48;;;;;;;2.60;1.80;;;;;;;19.07;76.35;98900.94;5072095;28;20312;-79
2023/06/09 00:08:15;;;;;;;2.17;1.57;;;;;;;19.06;76.22;98901.94;5072544;28;20355;-79
2023/06/09 00:10:42;;;;;;;2.17;1.57;;;;;;;19.00;76.85;98897.41;5072899;28;20274;-79
2023/06/09 00:13:09;;;;;;;2.83;1.90;;;;;;;19.01;76.66;98899.03;5072692;28;20580;-79
2023/06/09 00:15:36;;;;;;;3.23;1.90;;;;;;;19.04;76.18;98893.50;5072509;28;20294;-79
2023/06/09 00:18:05;;;;;;;3.30;1.80;;;;;;;19.03;76.47;98891.91;5072949;28;20256;-79
2023/06/09 00:20:33;;;;;;;4.47;1.80;;;;;;;19.00;77.11;98884.47;5072389;28;20228;-79
2023/06/09 00:23:00;;;;;;;2.10;1.70;;;;;;;19.01;76.65;98888.66;5072023;28;20209;-79
2023/06/09 00:25:27;;;;;;;2.47;1.80;;;;;;;18.99;77.82;98885.41;5072287;28;20297;-79
2023/06/09 00:27:54;;;;;;;3.43;2.00;;;;;;;18.99;78.13;98886.25;5072297;28;20262;-79
2023/06/09 00:30:22;;;;;;;4.77;2.00;;;;;;;18.97;78.47;98882.22;5071573;28;20244;-79
2023/06/09 00:32:49;;;;;;;1.70;1.60;;;;;;;18.96;78.45;98890.94;5071305;28;20644;-79
2023/06/09 00:35:17;;;;;;;3.57;1.70;;;;;;;18.96;78.35;98885.75;5071644;28;20225;-79
2023/06/09 00:37:44;;;;;;;2.23;1.73;;;;;;;18.95;78.19;98894.53;5072021;28;20246;-79
2023/06/09 00:40:12;;;;;;;3.60;1.63;;;;;;;18.97;78.49;98888.19;5071511;28;20287;-79
2023/06/09 00:42:39;;;;;;;1.73;1.50;;;;;;;19.00;78.53;98889.66;5071915;28;20233;-79
2023/06/09 00:45:06;;;;;;;3.50;1.60;;;;;;;19.00;78.19;98887.84;5072082;28;20223;-79
2023/06/09 00:47:33;;;;;;;2.33;1.77;;;;;;;18.96;78.96;98890.94;5071824;28;20231;-78
2023/06/09 00:50:00;;;;;;;3.27;1.80;;;;;;;18.95;79.74;98895.31;5071132;28;20222;-79
2023/06/09 00:52:29;;;;;;;2.57;1.80;;;;;;;18.93;80.55;98891.28;5071412;28;20739;-79
2023/06/09 00:54:56;;;;;;;2.07;1.80;;;;;;;18.90;80.80;98899.41;5071707;28;20228;-79
2023/06/09 00:57:24;;;;;;;3.67;2.00;;;;;;;18.93;80.38;98891.28;5071544;28;20203;-79
2023/06/09 00:59:50;;;;;;;2.90;1.77;;;;;;;18.89;80.65;98890.03;5071274;28;20196;-79
2023/06/09 01:02:17;;;;;;;4.93;1.93;;;;;;;18.89;80.24;98895.19;5071442;28;20216;-79
2023/06/09 01:04:49;;;;;;;2.70;2.00;;;;;;;18.90;80.21;98886.44;5072225;28;20258;-79
2023/06/09 01:07:24;;;;;;;2.80;1.83;;;;;;;18.92;80.13;98895.66;5071172;28;20674;-79
2023/06/09 01:10:01;;;;;;;2.93;2.00;;;;;;;18.95;80.01;98894.53;5071787;28;20208;-79
2023/06/09 01:12:35;;;;;;;2.17;1.60;;;;;;;18.87;79.66;98897.16;5071206;28;20243;-79
2023/06/09 01:15:10;;;;;;;2.70;1.60;;;;;;;18.81;79.55;98892.63;5072243;28;20225;-79
2023/06/09 01:17:42;;;;;;;3.27;1.90;;;;;;;18.76;80.45;98895.72;5071545;28;20642;-78
2023/06/09 01:20:15;;;;;;;2.40;1.90;;;;;;;18.71;80.89;98903.97;5071838;28;20223;-79
2023/06/09 01:22:54;;;;;;;9.80;2.00;;;;;;;18.60;81.39;98901.75;5071840;28;20646;-79
2023/06/09 01:25:35;;;;;;;3.00;2.10;;;;;;;18.47;82.86;98901.44;5070995;28;20229;-79
2023/06/09 01:28:06;;;;;;;2.33;1.87;;;;;;;18.43;83.06;98905.34;5070622;28;20577;-79
2023/06/09 01:30:36;;;;;;;2.17;1.80;;;;;;;18.35;83.95;98903.59;5071982;28;20777;-79
2023/06/09 01:33:06;;;;;;;3.17;2.10;;;;;;;18.29;84.75;98892.09;5071737;28;20248;-79
2023/06/09 01:35:33;;;;;;;2.77;1.90;;;;;;;18.14;85.35;98898.94;5072686;28;20233;-79
2023/06/09 01:38:01;;;;;;;2.27;1.70;;;;;;;18.03;86.12;98900.06;5075907;28;20191;-79
2023/06/09 01:40:30;;;;;;;3.00;1.97;;;;;;;17.99;86.57;98898.00;5075106;28;20276;-79
2023/06/09 01:42:59;;;;;;;2.37;1.80;;;;;;;17.92;86.80;98892.66;5075216;28;20211;-79
2023/06/09 01:45:25;;;;;;;2.90;2.00;;;;;;;17.87;86.70;98900.09;5075135;28;20222;-79
2023/06/09 01:47:52;;;;;;;6.03;1.87;;;;;;;17.81;87.81;98901.56;5073279;28;20212;-79
2023/06/09 01:50:26;;;;;;;3.20;2.10;;;;;;;17.77;88.21;98900.25;5075127;28;20304;-79
2023/06/09 01:52:58;;;;;;;3.47;2.30;;;;;;;17.80;88.37;98905.13;5075056;28;20217;-79
2023/06/09 01:55:30;;;;;;;3.40;2.27;;;;;;;17.80;87.95;98899.94;5075452;28;20706;-79
2023/06/09 01:58:04;;;;;;;3.30;2.10;;;;;;;17.79;87.75;98903.47;5075125;28;20200;-79
2023/06/09 02:00:32;;;;;;;3.57;1.90;;;;;;;17.77;87.89;98900.25;5075050;28;20582;-79
2023/06/09 02:03:01;;;;;;;2.83;1.90;;;;;;;17.81;87.91;98896.38;5074622;28;20205;-79
2023/06/09 02:05:29;;;;;;;2.37;1.73;;;;;;;17.79;87.83;98898.31;5074993;28;20227;-79
2023/06/09 02:07:57;;;;;;;3.73;2.07;;;;;;;17.82;87.45;98900.56;5074955;28;20202;-79
2023/06/09 02:10:24;;;;;;;2.27;1.80;;;;;;;17.84;87.48;98898.63;5075011;28;20236;-79
2023/06/09 02:12:52;;;;;;;2.63;1.80;;;;;;;17.84;88.07;98906.41;5074765;28;20233;-78
2023/06/09 02:15:19;;;;;;;3.13;2.00;;;;;;;17.82;88.36;98903.16;5075198;28;20214;-79
2023/06/09 02:17:46;;;;;;;3.57;2.20;;;;;;;17.81;88.26;98906.72;5074484;28;20247;-78
2023/06/09 02:20:13;;;;;;;3.17;1.97;;;;;;;17.79;88.42;98898.31;5074459;28;20473;-79
2023/06/09 02:22:40;;;;;;;3.53;2.03;;;;;;;17.78;88.81;98899.28;5075017;28;20204;-79
2023/06/09 02:25:08;;;;;;;2.37;1.70;;;;;;;17.79;89.08;98906.06;5075488;28;20600;-79
2023/06/09 02:27:35;;;;;;;2.43;1.93;;;;;;;17.79;89.31;98911.25;5074773;28;20216;-79
2023/06/09 02:30:04;;;;;;;2.43;1.90;;;;;;;17.78;90.16;98912.22;5074688;28;20222;-79
2023/06/09 02:32:31;;;;;;;2.60;1.90;;;;;;;17.79;90.12;98913.81;5073927;28;20235;-79
2023/06/09 02:34:58;;;;;;;2.70;1.70;;;;;;;17.79;90.68;98913.03;5074599;28;20279;-79
2023/06/09 02:37:26;;;;;;;3.30;1.73;;;;;;;17.78;91.03;98917.38;5074692;28;20280;-79
2023/06/09 02:39:53;;;;;;;3.10;2.03;;;;;;;17.76;91.18;98918.50;5073528;28;20865;-79
2023/06/09 02:42:20;;;;;;;2.93;1.93;;;;;;;17.79;91.96;98919.00;5073434;28;20204;-79
2023/06/09 02:44:48;;;;;;;3.67;1.90;;;;;;;17.80;92.06;98925.81;5074352;28;20213;-79
2023/06/09 02:47:16;;;;;;;2.53;1.80;;;;;;;17.79;92.32;98921.59;5072016;28;20201;-79
2023/06/09 02:49:43;;;;;;;2.77;1.90;;;;;;;17.77;91.94;98920.09;5073903;28;20684;-79
2023/06/09 02:52:10;;;;;;;2.77;1.90;;;;;;;17.77;92.21;98926.09;5074837;28;20499;-78
2023/06/09 02:54:37;;;;;;;2.83;1.83;;;;;;;17.77;92.29;98920.94;5074154;28;20205;-79
2023/06/09 02:57:06;;;;;;;2.63;1.90;;;;;;;17.76;92.67;98926.25;5074260;28;20244;-79
2023/06/09 02:59:33;;;;;;;2.73;2.00;;;;;;;17.73;92.26;98921.41;5074017;28;20673;-79
2023/06/09 03:02:00;;;;;;;5.57;1.93;;;;;;;17.74;92.31;98930.75;5073953;28;20201;-79
2023/06/09 03:04:29;;;;;;;5.00;1.97;;;;;;;17.70;92.29;98930.28;5073498;28;20200;-79
2023/06/09 03:06:56;;;;;;;3.37;2.37;;;;;;;17.73;92.30;98935.13;5074739;28;20222;-79
2023/06/09 03:09:23;;;;;;;3.10;2.00;;;;;;;17.75;92.56;98934.97;5074357;28;20561;-79
2023/06/09 03:11:50;;;;;;;4.00;2.07;;;;;;;17.75;92.61;98943.53;5073995;28;20246;-79
2023/06/09 03:14:17;;;;;;;2.93;1.90;;;;;;;17.76;93.15;98945.16;5075321;28;20203;-79
2023/06/09 03:16:43;;;;;;;3.50;2.10;;;;;;;17.77;93.68;98936.44;5074448;28;20227;-79
2023/06/09 03:19:10;;;;;;;3.17;2.07;;;;;;;17.76;93.47;98936.59;5073802;28;20203;-79
2023/06/09 03:21:38;;;;;;;3.50;2.00;;;;;;;17.73;93.76;98935.13;5073711;28;20586;-79
2023/06/09 03:24:07;;;;;;;2.67;1.80;;;;;;;17.69;93.98;98933.03;5074027;28;20221;-79
2023/06/09 03:26:33;;;;;;;3.37;2.00;;;;;;;17.71;94.31;98931.88;5073811;28;20256;-78
2023/06/09 03:29:00;;;;;;;4.63;2.20;;;;;;;17.73;94.50;98929.16;5073819;28;20204;-79
2023/06/09 03:31:27;;;;;;;4.10;2.00;;;;;;;17.72;94.23;98928.34;5071438;28;20239;-79
2023/06/09 03:33:54;;;;;;;3.10;1.83;;;;;;;17.68;94.67;98927.03;5071894;28;20649;-79
2023/06/09 03:36:22;;;;;;;2.80;1.90;;;;;;;17.68;93.83;98929.63;5073813;28;20230;-79
2023/06/09 03:38:51;;;;;;;2.80;1.77;;;;;;;17.69;93.50;98933.84;5073239;28;20231;-79
2023/06/09 03:41:17;;;;;;;3.37;2.00;;;;;;;17.73;92.85;98940.28;5072903;28;20277;-79
2023/06/09 03:43:44;;;;;;;2.53;1.83;;;;;;;17.79;92.31;98939.69;5072651;28;20235;-79
2023/06/09 03:46:11;;;;;;;4.40;1.93;;;;;;;17.87;92.38;98938.91;5072639;28;20235;-79
2023/06/09 03:48:39;;;;;;;2.77;1.93;;;;;;;17.90;92.44;98941.16;5073592;28;20214;-79
2023/06/09 03:51:06;;;;;;;3.20;2.00;;;;;;;17.96;92.12;98942.28;5072690;28;20218;-78
2023/06/09 03:53:33;;;;;;;1.90;1.53;;;;;;;18.06;92.88;98950.69;5072562;28;20205;-79
2023/06/09 03:56:01;;;;;;;2.90;1.80;;;;;;;18.10;92.02;98954.59;5071797;28;20222;-79
2023/06/09 03:58:28;;;;;;;3.37;2.17;;;;;;;18.16;92.66;98951.34;5071658;28;20202;-79
2023/06/09 04:00:55;;;;;;;3.67;2.17;;;;;;;18.22;92.23;98945.50;5072349;28;20665;-79
2023/06/09 04:03:22;;;;;;;3.17;2.03;;;;;;;18.28;93.35;98955.22;5073226;28;20261;-79
2023/06/09 04:05:49;;;;;;;3.23;2.13;;;;;;;18.32;94.13;98951.34;5072211;28;20233;-79
2023/06/09 04:08:16;;;;;;;4.47;2.03;;;;;;;18.39;94.52;98945.50;5072912;28;20294;-79
2023/06/09 04:10:43;;;;;;;3.30;2.60;;;;;;;18.44;95.10;98948.38;5072350;28;20787;-79
2023/06/09 04:13:11;;;;;;;2.47;2.00;;;;;;;18.48;95.20;98945.31;5073348;28;20236;-79
2023/06/09 04:15:38;;;;;;;3.30;2.20;;;;;;;18.51;94.27;98949.34;5072254;28;20230;-79
2023/06/09 04:18:05;;;;;;;4.37;2.20;;;;;;;18.55;94.06;98953.22;5072939;28;21008;-79
2023/06/09 04:20:34;;;;;;;3.00;2.00;;;;;;;18.63;94.61;98948.03;5072961;28;20276;-79
2023/06/09 04:23:02;;;;;;;4.50;2.90;;;;;;;18.73;94.71;98950.41;5072214;28;20295;-79
2023/06/09 04:25:28;;;;;;;3.30;2.30;;;;;;;18.81;93.96;98950.44;5071168;28;20219;-79
2023/06/09 04:27:56;;;;;;;3.00;2.10;;;;;;;18.94;94.44;98953.31;5071606;28;20211;-79
2023/06/09 04:30:26;;;;;;;2.87;2.20;;;;;;;19.02;95.30;98947.28;5071888;28;20228;-79
2023/06/09 04:32:53;;;;;;;3.27;2.10;;;;;;;19.14;96.01;98961.50;5072191;28;20242;-79
2023/06/09 04:35:21;;;;;;;2.70;2.17;;;;;;;19.22;95.75;98953.66;5072521;28;20227;-79
2023/06/09 04:37:48;;;;;;;4.90;2.47;;;;;;;19.34;95.78;98961.06;5072207;28;20203;-79
2023/06/09 04:40:21;;;;;;;6.00;2.10;;;;;;;19.43;96.27;98962.63;5071297;28;20224;-79
2023/06/09 04:42:51;;;;;;;2.70;2.00;;;;;;;19.57;94.76;98969.66;5072353;28;20233;-79
2023/06/09 04:45:19;;;;;;;2.23;1.83;;;;;;;19.71;94.25;98972.56;5071370;28;20217;-79
2023/06/09 04:47:48;;;;;;;3.30;2.20;;;;;;;19.87;94.07;98985.44;5072809;28;20203;-80
2023/06/09 04:50:16;;;;;;;3.00;2.07;;;;;;;19.99;93.89;98986.63;5071386;28;20221;-79
2023/06/09 04:52:43;;;;;;;5.17;2.33;;;;;;;20.11;89.40;98985.22;5071237;28;20237;-79
2023/06/09 04:55:11;;;;;;;6.37;2.00;;;;;;;20.24;89.48;98983.81;5072034;28;20311;-79
2023/06/09 04:57:38;;;;;;;2.67;1.83;;;;;;;20.35;90.00;98976.41;5071346;28;20221;-79
2023/06/09 05:00:08;;;;;;;2.60;2.00;;;;;;;20.46;89.86;98980.38;5071481;28;20300;-79
2023/06/09 05:02:35;;;;;;;2.63;2.10;;;;;;;20.63;89.15;98982.88;5071302;28;20210;-78
2023/06/09 05:05:03;;;;;;;3.27;2.10;;;;;;;20.78;90.17;98981.06;5071214;28;20827;-79
2023/06/09 05:07:30;;;;;;;2.47;1.90;;;;;;;20.88;86.07;98986.78;5071625;28;20200;-80
2023/06/09 05:09:57;;;;;;;2.90;1.90;;;;;;;20.97;86.54;98990.94;5069829;28;20314;-80
2023/06/09 05:12:25;;;;;;;2.17;1.63;;;;;;;21.09;87.91;98987.84;5071393;28;20246;-78
2023/06/09 05:14:52;;;;;;;3.53;1.90;;;;;;;21.26;90.68;98989.25;5071241;28;20221;-80
2023/06/09 05:17:18;;;;;;;3.03;2.27;;;;;;;21.41;88.73;98990.09;5071557;28;20205;-80
2023/06/09 05:19:45;;;;;;;3.63;2.17;;;;;;;21.45;87.49;98988.72;5071220;28;20213;-80
2023/06/09 05:22:14;;;;;;;3.27;1.90;;;;;;;21.48;84.18;98983.16;5071179;28;20273;-80
2023/06/09 05:24:41;;;;;;;3.13;2.00;;;;;;;21.59;87.57;98981.09;5071671;28;20212;-80
2023/06/09 05:27:08;;;;;;;2.60;2.00;;;;;;;21.72;88.60;98981.19;5070183;28;20210;-80
2023/06/09 05:29:35;;;;;;;4.40;2.33;;;;;;;21.86;88.90;98980.34;5071591;28;20673;-80
2023/06/09 05:32:02;;;;;;;3.73;2.27;;;;;;;22.03;90.06;98987.91;5071343;28;20231;-80
2023/06/09 05:34:29;;;;;;;3.83;2.20;;;;;;;22.12;87.39;98978.97;5071293;28;20202;-79
2023/06/09 05:36:56;;;;;;;3.47;1.90;;;;;;;22.22;87.16;98984.66;5071264;28;20606;-80
2023/06/09 05:39:25;;;;;;;3.55;2.20;;;;;;;22.34;86.08;98985.78;5071938;28;20250;-79
2023/06/09 05:41:52;;;;;;;2.78;2.13;;;;;;;22.38;80.42;98981.78;5070143;28;20250;-78
2023/06/09 05:44:19;;;;;;;3.80;2.05;;;;;;;22.47;82.29;98981.66;5071219;28;20633;-80
2023/06/09 05:46:45;;;;;;;3.60;2.20;;;;;;;22.59;80.52;98990.56;5071208;28;20231;-79
2023/06/09 05:49:12;;;;;;;2.40;1.98;;;;;;;22.73;83.63;98981.03;5071581;28;20203;-80
2023/06/09 05:51:39;;;;;;;2.70;1.98;;;;;;;22.82;81.06;98991.09;5070407;28;20767;-79
2023/06/09 05:54:06;;;;;;;2.30;2.00;;;;;;;22.97;77.87;98992.81;5070176;28;20217;-79
2023/06/09 05:56:37;;;;;;;2.20;1.80;;;;;;;23.08;78.71;98983.63;5071503;28;20630;-79
2023/06/09 05:59:04;;;;;;;2.70;2.10;;;;;;;23.11;77.32;98984.03;5073164;28;20213;-79
2023/06/09 06:01:31;;;;;;;2.50;2.00;;;;;;;23.19;75.81;98991.72;5070792;28;20223;-79
2023/06/09 06:03:58;;;;;;;2.03;1.75;;;;;;;23.23;74.58;98986.91;5071196;28;20703;-79
2023/06/09 06:06:25;;;;;;;3.13;2.08;;;;;;;23.37;74.16;98993.78;5070805;28;20319;-79
2023/06/09 06:08:52;;;;;;;3.33;2.15;;;;;;;23.53;72.53;98991.81;5070721;28;20195;-79
2023/06/09 06:11:19;;;;;;;2.30;1.90;;;;;;;23.60;72.89;98988.22;5070537;28;20605;-79
2023/06/09 06:13:47;;;;;;;2.95;2.05;;;;;;;23.69;69.33;98992.25;5070675;28;20316;-79
2023/06/09 06:16:14;;;;;;;2.47;1.98;;;;;;;23.84;68.36;98996.53;5070814;28;20223;-79
2023/06/09 06:18:41;;;;;;;2.60;2.00;;;;;;;23.88;71.30;98995.13;5071439;28;20253;-79
2023/06/09 06:21:07;;;;;;;3.92;1.77;;;;;;;23.94;71.52;98994.34;5072308;28;20214;-79
2023/06/09 06:23:35;;;;;;;2.75;2.00;;;;;;;24.08;69.20;99000.38;5074926;28;20197;-79
2023/06/09 06:26:02;;;;;;;2.08;1.77;;;;;;;24.27;70.15;98998.78;5074479;28;21058;-79
2023/06/09 06:28:29;;;;;;;1.92;1.70;;;;;;;24.44;67.07;98999.19;5074159;28;20207;-80
2023/06/09 06:30:57;;;;;;;2.78;1.80;;;;;;;24.54;64.42;98995.16;5073982;28;20275;-79
2023/06/09 06:33:29;;;;;;;2.25;1.65;;;;;;;24.62;62.57;98997.56;5074517;28;20234;-78
2023/06/09 06:35:56;;;;;;;3.50;1.92;;;;;;;24.77;64.62;98999.94;5074617;28;20215;-79
2023/06/09 06:38:22;;;;;;;2.40;1.85;;;;;;;24.87;60.96;98999.53;5074491;28;20234;-79
2023/06/09 06:40:50;;;;;;;2.05;1.80;;;;;;;25.00;62.98;98994.25;5073983;28;20219;-80
2023/06/09 06:43:16;;;;;;;2.63;1.92;;;;;;;25.24;64.03;99000.59;5073514;28;20214;-80
2023/06/09 06:45:44;;;;;;;2.47;1.80;;;;;;;25.30;61.20;98999.78;5073336;28;20222;-80
2023/06/09 06:48:12;;;;;;;2.80;2.28;;;;;;;25.38;60.69;99005.78;5074042;28;20291;-79
2023/06/09 06:50:40;;;;;;;3.05;1.67;;;;;;;25.49;63.84;98998.09;5073349;28;20231;-79
2023/06/09 06:53:07;;;;;;;2.60;2.00;;;;;;;25.68;63.10;99000.78;5073504;28;20254;-80
2023/06/09 06:55:35;;;;;;;2.30;1.80;;;;;;;25.86;64.19;99003.53;5073565;28;20773;-80
2023/06/09 06:58:02;;;;;;;3.88;1.80;;;;;;;26.13;63.24;98998.91;5073499;28;20287;-80
2023/06/09 07:00:29;;;;;;;2.88;1.88;;;;;;;26.16;57.80;99006.34;5073655;28;20726;-79
2023/06/09 07:02:57;;;;;;;3.58;1.75;;;;;;;26.13;55.27;99008.59;5073370;28;20256;-79
2023/06/09 07:05:25;;;;;;;3.67;1.85;;;;;;;25.92;57.01;99007.94;5073986;28;20284;-79
2023/06/09 07:07:52;;;;;;;2.40;1.75;;;;;;;25.93;58.98;99004.28;5072958;28;20202;-80
2023/06/09 07:10:19;;;;;;;2.70;1.83;;;;;;;25.92;55.10;99010.56;5072927;28;20299;-79
2023/06/09 07:12:46;;;;;;;2.10;1.75;;;;;;;26.07;55.60;99017.31;5072637;28;20289;-79
2023/06/09 07:15:13;;;;;;;4.68;1.63;;;;;;;26.21;51.13;99016.19;5073267;28;20226;-78
2023/06/09 07:17:40;;;;;;;1.85;1.50;;;;;;;26.31;53.52;99021.75;5073413;28;20218;-79
2023/06/09 07:20:08;;;;;;;2.53;1.70;;;;;;;26.38;53.89;99012.00;5073254;28;20272;-80
2023/06/09 07:22:40;;;;;;;2.97;1.67;;;;;;;26.25;53.23;99011.31;5073381;28;20220;-79
2023/06/09 07:25:08;;;;;;;2.08;1.58;;;;;;;26.33;52.83;99011.06;5072899;28;20595;-79
2023/06/09 07:27:35;;;;;;;2.05;1.50;;;;;;;26.35;52.20;99006.38;5072768;28;20262;-79
2023/06/09 07:30:02;;;;;;;1.80;1.40;;;;;;;26.29;51.66;99015.91;5072457;28;20219;-79
2023/06/09 07:32:29;;;;;;;1.95;1.50;;;;;;;26.11;52.01;99015.84;5071992;28;20206;-79
2023/06/09 07:34:57;;;;;;;1.90;1.48;;;;;;;26.01;54.52;99010.31;5072816;28;20215;-79
2023/06/09 07:37:25;;;;;;;3.42;1.75;;;;;;;26.04;56.29;99009.88;5072412;28;20790;-79
2023/06/09 07:39:53;;;;;;;2.13;1.75;;;;;;;26.05;54.35;99009.66;5072893;28;20226;-79
2023/06/09 07:42:20;;;;;;;2.17;1.50;;;;;;;26.06;56.23;99002.59;5072238;28;20210;-80
2023/06/09 07:44:46;;;;;;;2.58;1.45;;;;;;;26.06;57.70;99002.59;5072583;28;20252;-80
2023/06/09 07:47:13;;;;;;;2.00;1.50;;;;;;;26.04;54.62;99005.44;5072551;28;20210;-80
2023/06/09 07:49:40;;;;;;;2.20;1.60;;;;;;;26.17;55.87;98994.81;5072411;28;20607;-80
2023/06/09 07:52:08;;;;;;;2.22;1.50;;;;;;;26.28;55.59;99005.66;5072839;28;20655;-80
2023/06/09 07:54:35;;;;;;;3.28;1.80;;;;;;;26.17;54.65;98996.66;5071966;28;20264;-79
2023/06/09 07:57:04;;;;;;;2.97;1.63;;;;;;;26.29;55.67;99008.03;5072276;28;20611;-80
2023/06/09 07:59:31;;;;;;;2.20;1.65;;;;;;;26.33;56.06;99006.59;5072126;28;20590;-79
2023/06/09 08:01:58;;;;;;;1.90;1.50;;;;;;;26.39;56.86;98992.63;5072099;28;20223;-79
2023/06/09 08:04:26;;;;;;;1.70;1.27;;;;;;;26.68;59.20;98998.25;5073490;28;20266;-78
2023/06/09 08:06:54;;;;;;;2.20;1.80;;;;;;;26.93;55.22;99002.59;5073635;28;20258;-78
2023/06/09 08:09:20;;;;;;;1.92;1.60;;;;;;;27.14;54.12;99004.81;5073337;28;20735;-78
2023/06/09 08:11:47;;;;;;;3.03;1.60;;;;;;;27.14;52.62;99002.19;5072125;28;20265;-78
2023/06/09 08:14:16;;;;;;;2.40;1.77;;;;;;;27.38;57.44;98999.69;5071728;28;20737;-79
2023/06/09 08:16:43;;;;;;;2.15;1.73;;;;;;;27.69;56.45;99002.09;5071790;28;20287;-79
2023/06/09 08:19:10;;;;;;;1.80;1.60;;;;;;;27.93;53.78;99010.06;5071162;28;20264;-79
2023/06/09 08:21:42;;;;;;;1.88;1.50;;;;;;;27.96;52.91;99009.59;5071358;28;20237;-79
2023/06/09 08:24:09;;;;;;;1.60;1.42;;;;;;;27.98;49.98;99015.41;5071711;28;20278;-79
2023/06/09 08:26:36;;;;;;;1.98;1.75;;;;;;;27.99;52.67;99007.31;5070996;28;20273;-79
2023/06/09 08:29:03;;;;;;;2.28;1.58;;;;;;;28.10;51.99;99008.38;5071046;28;20218;-79
2023/06/09 08:31:31;;;;;;;1.85;1.50;;;;;;;28.17;50.94;99011.69;5071671;28;20218;-79
2023/06/09 08:33:58;;;;;;;1.65;1.33;;;;;;;28.33;49.96;99014.66;5071457;28;20234;-79
2023/06/09 08:36:25;;;;;;;2.28;1.40;;;;;;;28.46;46.96;99014.47;5071155;28;20219;-79
2023/06/09 08:38:52;;;;;;;2.65;1.65;;;;;;;28.27;48.54;99008.47;5071389;28;20647;-79
2023/06/09 08:41:23;;;;;;;4.45;1.73;;;;;;;28.19;45.30;99007.00;5070745;28;20215;-79
2023/06/09 08:43:51;;;;;;;2.20;1.67;;;;;;;28.32;47.29;99010.44;5071071;28;20590;-79
2023/06/09 08:46:20;;;;;;;1.83;1.38;;;;;;;28.35;46.68;99009.97;5071527;28;20219;-79
2023/06/09 08:48:51;;;;;;;3.17;1.67;;;;;;;28.64;47.99;99003.00;5071203;28;20674;-79
2023/06/09 08:51:21;;;;;;;2.28;1.50;;;;;;;28.77;48.62;99005.41;5070860;28;20229;-79
2023/06/09 08:53:51;;;;;;;4.38;1.60;;;;;;;28.90;49.53;99006.97;5071493;28;20238;-80
2023/06/09 08:56:18;;;;;;;1.42;1.33;;;;;;;28.75;48.43;98990.88;5070872;28;20223;-79
2023/06/09 08:58:47;;;;;;;3.03;1.65;;;;;;;29.01;45.79;99000.91;5071369;28;20203;-80
2023/06/09 09:01:14;;;;;;;1.52;1.33;;;;;;;28.83;47.02;98995.78;5070917;28;20725;-80
2023/06/09 09:03:41;;;;;;;2.42;1.67;;;;;;;28.73;47.31;99000.84;5071069;28;20286;-79
2023/06/09 09:06:10;;;;;;;2.17;1.70;;;;;;;28.77;45.65;98996.69;5071971;28;20218;-80
2023/06/09 09:08:37;;;;;;;3.03;1.60;;;;;;;28.94;46.91;99007.31;5070663;28;20207;-80
2023/06/09 09:11:04;;;;;;;3.15;1.88;;;;;;;29.05;46.93;99004.69;5072126;28;20729;-80
2023/06/09 09:13:32;;;;;;;2.67;1.40;;;;;;;29.16;45.12;98999.63;5071870;28;20234;-80
2023/06/09 09:16:00;;;;;;;2.03;1.55;;;;;;;29.25;46.17;99003.47;5070795;28;20233;-80
2023/06/09 09:18:30;;;;;;;1.85;1.58;;;;;;;29.36;45.21;98999.22;5072023;28;20234;-80
2023/06/09 09:20:58;;;;;;;2.80;1.50;;;;;;;29.28;45.33;98997.75;5071693;28;20230;-80
2023/06/09 09:23:31;;;;;;;2.47;1.60;;;;;;;29.10;43.31;98999.53;5071679;28;20202;-80
2023/06/09 09:25:59;;;;;;;2.80;1.67;;;;;;;29.04;42.46;98997.81;5071843;28;20310;-80
2023/06/09 09:28:26;;;;;;;1.98;1.45;;;;;;;29.16;43.32;98999.63;5070441;28;20214;-79
2023/06/09 09:30:54;;;;;;;2.95;1.63;;;;;;;29.31;44.89;98994.66;5070586;28;20253;-80
2023/06/09 09:33:22;;;;;;;2.53;1.70;;;;;;;29.53;46.51;98990.31;5072074;28;20234;-80
2023/06/09 09:35:51;;;;;;;2.70;1.92;;;;;;;29.59;44.34;98987.78;5072196;28;20600;-80
2023/06/09 09:38:19;;;;;;;1.90;1.45;;;;;;;29.24;41.37;98997.44;5072496;28;20203;-79
2023/06/09 09:40:50;;;;;;;4.43;1.65;;;;;;;29.16;45.49;98989.88;5070706;28;20222;-80
2023/06/09 09:43:18;;;;;;;7.22;1.88;;;;;;;29.42;43.19;98990.38;5070864;28;20238;-80
2023/06/09 09:45:46;;;;;;;5.38;1.70;;;;;;;29.55;43.55;98993.53;5070864;28;20218;-80
2023/06/09 09:48:14;;;;;;;2.67;1.90;;;;;;;29.59;44.60;98983.28;5071962;28;20585;-80
2023/06/09 09:50:43;;;;;;;3.35;1.50;;;;;;;29.50;43.66;98996.06;5071344;28;20314;-79
2023/06/09 09:53:10;;;;;;;3.35;1.77;;;;;;;29.51;43.47;98995.00;5070966;28;20264;-80
2023/06/09 09:55:38;;;;;;;3.70;1.73;;;;;;;29.40;43.40;98981.91;5071865;28;20219;-80
2023/06/09 09:58:08;;;;;;;2.58;1.77;;;;;;;29.45;43.20;98982.78;5074577;28;20650;-79
2023/06/09 10:00:36;;;;;;;3.50;1.98;;;;;;;29.25;38.82;98992.94;5074278;28;20337;-80
2023/06/09 10:03:08;;;;;;;2.17;1.58;;;;;;;29.36;40.95;98989.47;5074616;28;20222;-79
2023/06/09 10:05:39;;;;;;;2.75;1.60;;;;;;;29.37;41.54;98990.28;5074629;28;20801;-79
2023/06/09 10:08:07;;;;;;;2.33;1.83;;;;;;;29.60;41.51;98984.09;5074426;28;20207;-80
2023/06/09 10:10:35;;;;;;;5.78;1.70;;;;;;;29.85;43.73;98981.91;5073764;28;20226;-79
2023/06/09 10:13:03;;;;;;;2.15;1.80;;;;;;;29.66;41.28;98985.81;5075368;28;20601;-80
2023/06/09 10:15:32;;;;;;;2.67;1.83;;;;;;;29.66;40.29;98983.16;5074041;28;20301;-80
2023/06/09 10:18:01;;;;;;;2.40;1.83;;;;;;;29.65;41.43;98989.50;5073333;28;20234;-80
2023/06/09 10:20:28;;;;;;;1.88;1.63;;;;;;;29.80;41.50;98988.94;5071848;28;20222;-79
2023/06/09 10:22:55;;;;;;;2.20;1.80;;;;;;;29.78;40.44;98981.25;5074321;28;20203;-80
2023/06/09 10:25:25;;;;;;;2.75;1.85;;;;;;;29.87;39.97;98985.09;5073790;28;20222;-80
2023/06/09 10:27:52;;;;;;;2.90;1.80;;;;;;;29.69;38.73;98978.22;5073697;28;20238;-80
2023/06/09 10:30:21;;;;;;;2.72;1.90;;;;;;;30.00;41.09;98974.25;5073075;28;20306;-80
2023/06/09 10:32:57;;;;;;;2.20;1.70;;;;;;;30.05;41.13;98970.06;5073632;28;20582;-80
2023/06/09 10:35:28;;;;;;;2.47;1.90;;;;;;;30.14;39.04;98968.66;5073978;28;20280;-79
2023/06/09 10:37:56;;;;;;;3.40;1.70;;;;;;;30.02;38.73;98971.38;5073894;28;20290;-80
2023/06/09 10:40:35;;;;;;;2.17;1.77;;;;;;;30.25;39.92;98965.13;5073894;28;20677;-80
2023/06/09 10:43:22;;;;;;;2.88;1.80;;;;;;;30.42;37.20;98965.91;5073607;28;20199;-80
2023/06/09 10:45:51;;;;;;;2.58;1.88;;;;;;;30.40;37.35;98960.09;5073622;28;20344;-80
2023/06/09 10:48:44;;;;;;;4.80;1.85;;;;;;;30.60;39.35;98962.19;5073509;28;20203;-80
2023/06/09 10:51:39;;;;;;;2.03;1.83;;;;;;;30.56;34.84;98968.19;5066138;28;20738;-80
2023/06/09 10:54:25;;;;;;;2.20;1.88;;;;;;;30.40;36.17;98960.09;5073364;28;20234;-81
2023/06/09 10:56:55;;;;;;;3.28;1.80;;;;;;;30.05;36.48;98954.25;5073379;28;20602;-80
2023/06/09 11:00:11;;;;;;;5.38;2.00;;;;;;;30.20;37.24;98962.41;5074217;28;20207;-80
2023/06/09 11:02:39;;;;;;;2.58;2.08;;;;;;;30.30;36.47;98952.00;5072737;28;20202;-80
2023/06/09 11:05:08;;;;;;;3.00;1.88;;;;;;;30.41;36.94;98948.47;5073350;28;20217;-80
2023/06/09 11:07:50;;;;;;;2.95;1.83;;;;;;;30.58;39.22;98945.81;5071658;28;20723;-80
2023/06/09 11:10:36;;;;;;;1.88;1.58;;;;;;;30.65;36.60;98946.41;5072836;28;20219;-80
2023/06/09 11:13:39;;;;;;;3.45;2.03;;;;;;;30.83;37.74;98940.03;5073468;28;20289;-80
2023/06/09 11:16:06;;;;;;;2.85;1.90;;;;;;;30.99;35.81;98935.75;5072592;28;20223;-80
2023/06/09 11:18:33;;;;;;;4.25;1.90;;;;;;;30.95;34.75;98937.28;5073180;28;20195;-80
2023/06/09 11:21:21;;;;;;;2.67;1.80;;;;;;;31.09;36.09;98942.97;5072881;28;20222;-80
2023/06/09 11:24:00;;;;;;;3.03;1.90;;;;;;;31.07;34.63;98939.78;5073169;28;20646;-80
2023/06/09 11:26:27;;;;;;;2.95;2.20;;;;;;;31.22;36.48;98942.59;5072681;28;20218;-80
2023/06/09 11:28:54;;;;;;;2.92;1.85;;;;;;;31.19;33.99;98937.78;5072920;28;20246;-80
2023/06/09 11:31:21;;;;;;;2.85;1.90;;;;;;;30.96;35.83;98935.44;5072884;28;20234;-80
2023/06/09 11:33:50;;;;;;;2.72;2.00;;;;;;;30.66;36.62;98931.34;5072607;28;20256;-80
2023/06/09 11:36:21;;;;;;;5.45;2.33;;;;;;;30.72;34.63;98933.03;5072945;28;20211;-80
2023/06/09 11:38:49;;;;;;;4.25;2.00;;;;;;;30.93;37.38;98925.38;5072889;28;20223;-80
2023/06/09 11:41:21;;;;;;;2.22;1.92;;;;;;;30.89;33.64;98933.78;5072151;28;20276;-80